Archival Weather

Chicago O'Hare International

Chicago, Illinois (KORD)

Report from: Sunday, March 19, 2023 7:51 AM CDT
Current time: Friday, June 21, 2024 5:57 PM CDT

Current weather – Weather history – Daily summaries
Weather forecast

Temperature-7.2°C (19.0°F)
Wind chill-12.8°C (9.0°F)
Dew point-11.7°C (10.9°F)
Winds 7 kts (3.6 m/s, 8.1 mph) West (270°)
Visibility10 mi. (16.1 km)
Clouds Sky clear
Altimeter30.26 in.Hg (1025 mB)
Relative humidity70 %
Density altitude-3,144 ft. (-958 m)
Sea-level pressure102.6 kPa (1026 mB, 30.29 in.Hg)
Remarks System requires maintenance
Automated weather observing station with precipitation discriminator
Flight conditions Visual Meteorological Conditions
Raw dataKORD 191251Z 27007KT 10SM CLR M07/M12 A3026 RMK AO2 SLP258 T10721117 $
An error has occurred. This application may no longer respond until reloaded. Reload 🗙